Time;durP1;ratioP1;P1;durP2;ratioP2;P2;SDS_P1;SDS_P2;PMS_P1;PMS_P2;Temp;Humidity;BMP_temperature;BMP_pressure;BME280_temperature;BME280_humidity;BME280_pressure;Samples;Min_cycle;Max_cycle;Signal;HPM_P1;HPM_P2
2021/03/24 00:01:58;;;;;;;4.27;2.70;;;;;;;0.42;57.69;97012.08;1760726;81;21193;-80
2021/03/24 00:04:25;;;;;;;5.75;2.87;;;;;;;0.42;57.86;97004.30;1732805;81;21192;-79
2021/03/24 00:06:53;;;;;;;3.75;2.27;;;;;;;0.43;57.97;97008.58;1763151;81;21132;-79
2021/03/24 00:09:21;;;;;;;4.50;2.42;;;;;;;0.44;57.82;97015.45;1764437;80;21294;-80
2021/03/24 00:11:50;;;;;;;5.60;2.57;;;;;;;0.41;57.88;97016.91;1755432;80;21096;-79
2021/03/24 00:14:18;;;;;;;4.57;2.57;;;;;;;0.36;58.07;97012.34;1741503;80;21152;-81
2021/03/24 00:16:46;;;;;;;1.83;1.33;;;;;;;0.34;58.13;97012.84;1768174;80;21151;-80
2021/03/24 00:19:14;;;;;;;4.77;2.77;;;;;;;0.31;58.32;97016.41;1740765;80;21175;-80
2021/03/24 00:21:43;;;;;;;4.40;2.40;;;;;;;0.23;58.41;97015.88;1760827;80;21315;-80
2021/03/24 00:24:12;;;;;;;4.93;3.00;;;;;;;0.14;58.55;97015.78;1737513;81;21286;-80
2021/03/24 00:26:39;;;;;;;6.77;3.30;;;;;;;0.10;58.68;97013.77;1723339;81;21137;-80
2021/03/24 00:29:06;;;;;;;5.50;3.23;;;;;;;0.09;58.89;97011.25;1730562;82;21164;-80
2021/03/24 00:31:34;;;;;;;5.00;2.33;;;;;;;0.08;58.93;97013.44;1738997;81;21283;-80
2021/03/24 00:34:01;;;;;;;4.73;2.40;;;;;;;0.05;59.00;97022.63;1742536;80;21270;-80
2021/03/24 00:36:29;;;;;;;5.57;3.57;;;;;;;-0.03;59.01;97018.59;1746909;80;21282;-80
2021/03/24 00:38:56;;;;;;;5.20;3.27;;;;;;;-0.10;59.36;97013.27;1699076;82;21267;-80
2021/03/24 00:41:23;;;;;;;7.53;2.93;;;;;;;-0.12;59.47;97016.36;1755954;80;21147;-79
2021/03/24 00:43:51;;;;;;;7.55;3.02;;;;;;;-0.16;59.27;97019.98;1767076;80;21593;-78
2021/03/24 00:46:18;;;;;;;3.20;2.00;;;;;;;-0.22;59.44;97022.36;1768644;80;21301;-79
2021/03/24 00:48:45;;;;;;;5.53;3.10;;;;;;;-0.28;59.47;97021.30;1747479;80;21162;-83
2021/03/24 00:51:13;;;;;;;5.23;2.73;;;;;;;-0.33;59.49;97025.80;1764728;81;21202;-81
2021/03/24 00:53:40;;;;;;;5.87;3.40;;;;;;;-0.36;59.47;97028.06;1759288;80;21336;-79
2021/03/24 00:56:08;;;;;;;5.53;3.40;;;;;;;-0.37;59.57;97031.55;1765405;80;21141;-80
2021/03/24 00:58:35;;;;;;;5.07;3.13;;;;;;;-0.36;59.59;97032.38;1763824;80;21175;-79
2021/03/24 01:01:03;;;;;;;4.30;2.37;;;;;;;-0.38;59.84;97038.09;1782306;81;21144;-79
2021/03/24 01:03:30;;;;;;;7.30;3.10;;;;;;;-0.37;59.81;97041.91;1765307;81;21150;-82
2021/03/24 01:05:57;;;;;;;5.47;2.70;;;;;;;-0.41;60.07;97049.84;1746327;81;21158;-79
2021/03/24 01:08:26;;;;;;;5.43;2.80;;;;;;;-0.43;59.74;97042.15;1749567;82;21292;-79
2021/03/24 01:10:56;;;;;;;5.43;3.00;;;;;;;-0.48;59.40;97042.31;1764189;80;21262;-78
2021/03/24 01:13:25;;;;;;;2.50;1.63;;;;;;;-0.50;59.42;97045.41;1747461;80;21306;-79
2021/03/24 01:15:54;;;;;;;4.77;2.17;;;;;;;-0.51;59.19;97044.18;1749914;81;21724;-80
2021/03/24 01:18:23;;;;;;;2.50;1.60;;;;;;;-0.59;58.41;97047.04;1743509;81;21117;-80
2021/03/24 01:20:52;;;;;;;4.37;2.00;;;;;;;-0.63;58.75;97049.33;1722524;81;21294;-80
2021/03/24 01:23:20;;;;;;;3.20;1.90;;;;;;;-0.65;58.84;97049.39;1746140;81;21680;-79
2021/03/24 01:25:47;;;;;;;3.17;2.07;;;;;;;-0.66;58.65;97045.11;1774134;80;21311;-80
2021/03/24 01:28:20;;;;;;;5.13;2.20;;;;;;;-0.66;58.55;97049.00;1761194;80;21236;-80
2021/03/24 01:30:48;;;;;;;2.83;1.77;;;;;;;-0.66;58.43;97049.00;1700252;83;21167;-79
2021/03/24 01:33:16;;;;;;;4.27;2.20;;;;;;;-0.69;57.29;97046.97;1684750;85;21175;-82
2021/03/24 01:35:44;;;;;;;3.47;2.13;;;;;;;-0.75;57.25;97049.33;1727781;81;21234;-80
2021/03/24 01:38:13;;;;;;;3.93;2.07;;;;;;;-0.78;57.83;97049.42;1737834;82;21140;-79
2021/03/24 01:43:37;;;;;;;3.47;1.83;;;;;;;-0.80;57.04;97039.14;1711357;83;21208;-79
2021/03/24 01:46:39;;;;;;;4.20;1.80;;;;;;;-0.84;56.47;97050.52;1701408;83;21298;-79
2021/03/24 01:49:31;;;;;;;1.77;1.20;;;;;;;-0.84;56.71;97047.06;1692452;84;21681;-82
2021/03/24 01:52:08;;;;;;;2.80;1.50;;;;;;;-0.83;57.12;97051.34;1699179;83;21385;-79
2021/03/24 01:54:39;;;;;;;3.33;1.80;;;;;;;-0.93;54.99;97048.68;1691449;82;21369;-80
2021/03/24 01:57:17;;;;;;;1.70;1.37;;;;;;;-0.96;55.92;97051.77;1683780;83;21192;-79
2021/03/24 01:59:45;;;;;;;3.00;1.67;;;;;;;-0.99;55.58;97050.59;1696469;83;21161;-79
2021/03/24 02:02:18;;;;;;;3.93;1.83;;;;;;;-1.01;55.74;97052.38;1697797;82;21176;-79
2021/03/24 02:04:48;;;;;;;5.90;1.63;;;;;;;-1.02;55.60;97052.45;1689622;83;21159;-79
2021/03/24 02:07:27;;;;;;;3.20;2.00;;;;;;;-1.03;55.88;97046.41;1694044;82;21175;-79
2021/03/24 02:10:36;;;;;;;4.47;2.00;;;;;;;-1.02;56.12;97045.52;1674730;83;21159;-80
2021/03/24 02:13:18;;;;;;;3.93;2.10;;;;;;;-1.01;56.42;97050.23;1680148;84;21310;-80
2021/03/24 02:15:57;;;;;;;4.23;2.27;;;;;;;-1.00;56.45;97045.45;1694768;83;21179;-80
2021/03/24 02:18:34;;;;;;;4.97;2.37;;;;;;;-1.02;56.84;97045.98;1668671;85;21185;-79
2021/03/24 02:21:13;;;;;;;4.23;2.77;;;;;;;-1.03;56.90;97044.29;1654660;87;21192;-80
2021/03/24 02:24:12;;;;;;;6.47;3.80;;;;;;;-1.04;56.96;97047.77;1672050;84;21139;-79
2021/03/24 02:27:13;;;;;;;4.37;2.20;;;;;;;-1.05;57.27;97049.49;1685425;83;21180;-79
2021/03/24 02:29:48;;;;;;;5.00;2.50;;;;;;;-1.07;57.19;97053.90;1657941;85;21183;-80
2021/03/24 02:32:19;;;;;;;7.35;2.87;;;;;;;-1.09;57.34;97059.56;1697232;83;21608;-79
2021/03/24 02:34:47;;;;;;;5.10;2.27;;;;;;;-1.11;57.09;97059.60;1700395;82;21168;-80
2021/03/24 02:37:17;;;;;;;5.47;2.50;;;;;;;-1.15;56.87;97066.22;1687767;83;21243;-79
2021/03/24 02:39:46;;;;;;;6.63;2.57;;;;;;;-1.20;57.00;97065.55;1696034;84;21354;-80
2021/03/24 02:42:16;;;;;;;4.13;2.10;;;;;;;-1.23;57.13;97066.94;1659216;85;21191;-80
2021/03/24 02:44:45;;;;;;;4.90;2.53;;;;;;;-1.27;57.24;97068.34;1681865;83;21619;-80
2021/03/24 02:47:13;;;;;;;4.13;2.10;;;;;;;-1.27;57.43;97066.19;1640098;86;21222;-80
2021/03/24 02:49:43;;;;;;;2.83;1.60;;;;;;;-1.29;56.95;97067.55;1689720;84;21338;-79
2021/03/24 02:52:12;;;;;;;4.27;2.50;;;;;;;-1.31;57.12;97071.92;1672046;85;21181;-79
2021/03/24 02:54:42;;;;;;;4.40;3.07;;;;;;;-1.29;57.36;97073.16;1709526;83;21188;-80
2021/03/24 02:57:10;;;;;;;7.03;2.30;;;;;;;-1.27;57.38;97077.83;1703874;83;21150;-79
2021/03/24 02:59:37;;;;;;;5.07;2.80;;;;;;;-1.32;57.55;97072.81;1703816;82;21270;-79
2021/03/24 03:02:15;;;;;;;4.63;2.70;;;;;;;-1.34;57.76;97073.77;1664759;85;21204;-78
2021/03/24 03:05:03;;;;;;;3.67;2.47;;;;;;;-1.39;58.21;97079.09;1671878;84;21636;-80
2021/03/24 03:07:38;;;;;;;3.90;2.13;;;;;;;-1.44;58.33;97081.83;1708439;82;21157;-78
2021/03/24 03:10:29;;;;;;;4.93;2.40;;;;;;;-1.50;58.17;97083.33;1686139;83;21278;-79
2021/03/24 03:13:08;;;;;;;5.40;2.37;;;;;;;-1.59;58.63;97084.91;1702829;83;21679;-80
2021/03/24 03:15:56;;;;;;;4.20;2.60;;;;;;;-1.59;58.75;97087.03;1658492;86;21310;-80
2021/03/24 03:18:29;;;;;;;3.33;2.07;;;;;;;-1.66;59.34;97081.67;1667620;84;21282;-79
2021/03/24 03:21:02;;;;;;;12.80;2.40;;;;;;;-1.69;58.96;97079.63;1692056;82;21168;-79
2021/03/24 03:23:32;;;;;;;5.33;2.60;;;;;;;-1.77;59.23;97087.61;1695834;83;21315;-80
2021/03/24 03:26:13;;;;;;;6.37;2.77;;;;;;;-1.86;59.49;97087.47;1671861;85;21168;-79
2021/03/24 03:28:45;;;;;;;7.73;2.93;;;;;;;-1.92;60.01;97091.51;1672652;85;21160;-79
2021/03/24 03:31:21;;;;;;;7.60;3.70;;;;;;;-1.91;60.31;97094.06;1687855;85;21380;-79
2021/03/24 03:33:52;;;;;;;9.30;3.02;;;;;;;-1.90;61.24;97094.44;1689682;85;21322;-79
2021/03/24 03:36:22;;;;;;;4.73;2.23;;;;;;;-1.89;61.21;97090.97;1671924;84;21328;-79
2021/03/24 03:38:52;;;;;;;4.90;2.83;;;;;;;-1.92;61.18;97095.39;1697674;83;21160;-79
2021/03/24 03:41:22;;;;;;;3.80;2.17;;;;;;;-1.96;60.84;97102.38;1692036;83;21188;-78
2021/03/24 03:43:53;;;;;;;4.67;2.43;;;;;;;-1.93;60.77;97102.30;1667822;85;21353;-78
2021/03/24 03:46:25;;;;;;;4.60;2.77;;;;;;;-1.93;60.53;97102.30;1697309;83;21318;-78
2021/03/24 03:48:53;;;;;;;6.57;2.83;;;;;;;-1.90;60.68;97098.31;1698621;83;21163;-79
2021/03/24 03:51:50;;;;;;;5.90;2.90;;;;;;;-1.88;60.98;97104.75;1703686;83;21202;-79
2021/03/24 03:54:47;;;;;;;7.95;2.60;;;;;;;-1.87;61.14;97106.45;1677529;83;21744;-79
2021/03/24 03:57:38;;;;;;;3.47;2.42;;;;;;;-1.82;61.09;97112.77;1672244;85;21253;-79
2021/03/24 04:00:25;;;;;;;5.90;2.90;;;;;;;-1.80;60.91;97116.12;1695610;82;21609;-78
2021/03/24 04:03:13;;;;;;;5.13;2.80;;;;;;;-1.86;60.84;97115.89;1704532;83;21160;-79
2021/03/24 04:05:57;;;;;;;6.07;2.23;;;;;;;-1.91;60.24;97122.48;1704673;83;21181;-80
2021/03/24 04:08:32;;;;;;;6.93;2.60;;;;;;;-1.98;60.25;97119.66;1686833;84;21317;-79
2021/03/24 04:11:07;;;;;;;4.63;2.47;;;;;;;-2.04;60.77;97114.69;1697754;83;21184;-79
2021/03/24 04:13:40;;;;;;;4.33;2.80;;;;;;;-2.02;60.69;97123.67;1662352;85;21329;-79
2021/03/24 04:16:07;;;;;;;5.80;3.23;;;;;;;-2.05;60.63;97122.90;1698315;83;21161;-78
2021/03/24 04:18:49;;;;;;;4.57;2.70;;;;;;;-2.06;60.75;97126.80;1673436;85;21175;-78
2021/03/24 04:21:19;;;;;;;4.30;2.73;;;;;;;-2.03;61.02;97128.01;1678092;82;21203;-79
2021/03/24 04:23:55;;;;;;;6.73;2.73;;;;;;;-1.98;61.14;97133.04;1704138;83;21329;-79
2021/03/24 04:26:36;;;;;;;6.37;2.33;;;;;;;-1.90;61.91;97137.07;1699236;83;21176;-79
2021/03/24 04:29:08;;;;;;;7.43;3.17;;;;;;;-1.81;62.19;97140.30;1676047;85;21708;-80
2021/03/24 04:31:41;;;;;;;8.70;2.70;;;;;;;-1.75;61.56;97143.52;1630721;86;21235;-79
2021/03/24 04:34:08;;;;;;;6.20;2.27;;;;;;;-1.74;61.04;97141.80;1689449;83;21294;-79
2021/03/24 04:36:46;;;;;;;7.37;2.40;;;;;;;-1.81;60.68;97148.05;1683213;83;21211;-79
2021/03/24 04:39:31;;;;;;;6.40;2.70;;;;;;;-1.83;60.94;97151.13;1692969;83;21262;-79
2021/03/24 04:42:04;;;;;;;5.10;3.03;;;;;;;-1.79;61.10;97152.28;1701495;82;21168;-79
2021/03/24 04:44:35;;;;;;;4.63;2.60;;;;;;;-1.75;61.09;97155.16;1700598;83;21577;-81
2021/03/24 04:47:26;;;;;;;7.47;2.97;;;;;;;-1.64;61.49;97160.45;1706682;83;21184;-80
2021/03/24 04:50:02;;;;;;;6.93;3.60;;;;;;;-1.58;61.16;97165.00;1635056;86;21631;-79
2021/03/24 04:52:33;;;;;;;5.25;2.92;;;;;;;-1.58;60.76;97165.00;1684075;82;21207;-79
2021/03/24 04:55:08;;;;;;;7.27;3.40;;;;;;;-1.59;60.73;97164.59;1692357;82;21164;-79
2021/03/24 04:57:36;;;;;;;12.90;3.60;;;;;;;-1.53;60.79;97172.61;1691077;83;21175;-79
2021/03/24 05:00:12;;;;;;;6.60;3.30;;;;;;;-1.48;60.92;97170.72;1678463;82;21192;-79
2021/03/24 05:02:43;;;;;;;;;;;;;;;-1.41;60.84;97175.26;1666832;84;21136;-79
2021/03/24 05:05:21;;;;;;;6.33;3.50;;;;;;;-1.40;60.20;97179.54;1688268;84;20134;-79
2021/03/24 05:08:11;;;;;;;6.27;3.43;;;;;;;-1.43;60.26;97184.80;1666385;84;21293;-81
2021/03/24 05:10:55;;;;;;;5.40;3.25;;;;;;;-1.25;60.32;97184.69;1815049;79;24566;-79
2021/03/24 05:13:37;;;;;;;7.93;4.27;;;;;;;-1.23;60.24;97193.68;1806534;78;21222;-78
2021/03/24 05:16:32;;;;;;;9.17;3.37;;;;;;;-1.15;60.19;97187.81;1802757;79;21099;-78
2021/03/24 05:19:01;;;;;;;5.43;2.83;;;;;;;-1.06;60.08;97187.98;1810896;79;21233;-78
2021/03/24 05:22:07;;;;;;;7.53;3.73;;;;;;;-0.96;59.89;97195.39;1805018;78;21209;-79
2021/03/24 05:24:37;;;;;;;4.60;3.23;;;;;;;-0.76;59.77;97200.83;1809575;78;21167;-80
2021/03/24 05:27:18;;;;;;;7.13;4.17;;;;;;;-0.31;60.12;97193.67;1798701;80;21691;-80
2021/03/24 05:29:54;;;;;;;6.87;3.33;;;;;;;0.32;59.48;97194.90;1798566;80;21121;-80
2021/03/24 05:32:26;;;;;;;7.12;4.40;;;;;;;0.72;58.70;97194.65;1810400;78;21124;-84
2021/03/24 05:34:57;;;;;;;6.13;3.73;;;;;;;1.31;58.08;97197.51;1798595;80;21126;-80
2021/03/24 05:37:29;;;;;;;5.27;3.40;;;;;;;1.93;57.74;97200.95;1798522;78;21133;-81
2021/03/24 05:40:11;;;;;;;7.33;3.55;;;;;;;2.43;56.29;97196.98;1788718;80;21537;-81
2021/03/24 05:42:52;;;;;;;8.83;4.50;;;;;;;3.00;56.20;97193.92;1798294;80;21265;-80
2021/03/24 05:46:00;;;;;;;7.80;4.00;;;;;;;3.61;54.50;97203.08;1817974;78;21103;-81
2021/03/24 05:48:51;;;;;;;8.70;3.47;;;;;;;4.35;53.30;97203.65;1803273;79;21768;-82
2021/03/24 05:52:01;;;;;;;8.23;3.70;;;;;;;4.96;48.82;97202.06;1812230;78;21259;-80
2021/03/24 05:54:44;;;;;;;6.75;3.80;;;;;;;5.44;49.94;97207.64;1819829;78;21238;-80
2021/03/24 05:57:55;;;;;;;5.70;3.40;;;;;;;5.96;48.74;97206.84;1754052;81;21304;-80
2021/03/24 06:00:46;;;;;;;4.85;2.75;;;;;;;6.34;47.46;97215.48;1717461;84;21732;-79
2021/03/24 06:03:34;;;;;;;6.55;2.40;;;;;;;6.59;44.78;97213.48;1717253;84;21150;-80
2021/03/24 06:06:34;;;;;;;6.47;2.85;;;;;;;6.92;45.93;97218.86;1718907;82;21285;-82
2021/03/24 06:09:37;;;;;;;;;;;;;;;7.13;42.67;97219.27;1720199;82;21293;-79
2021/03/24 06:12:35;;;;;;;4.60;2.22;;;;;;;7.35;43.88;97218.70;1685272;84;20217;-81
2021/03/24 06:15:43;;;;;;;4.30;2.42;;;;;;;7.65;43.11;97214.19;1689555;82;21281;-80
2021/03/24 06:18:30;;;;;;;5.30;2.80;;;;;;;7.40;39.49;97223.66;1712706;84;21145;-79
2021/03/24 06:21:22;;;;;;;4.85;2.60;;;;;;;7.61;40.12;97225.81;1713502;84;21186;-81
2021/03/24 06:24:07;;;;;;;5.22;2.62;;;;;;;7.77;38.71;97228.27;1712295;83;21319;-82
2021/03/24 06:27:12;;;;;;;4.95;3.10;;;;;;;8.14;39.94;97231.03;1732845;82;21184;-80
2021/03/24 06:30:02;;;;;;;6.35;2.87;;;;;;;8.15;39.54;97231.40;1713347;84;21306;-81
2021/03/24 06:32:55;;;;;;;5.50;2.85;;;;;;;8.68;39.94;97243.56;1712946;84;21277;-80
2021/03/24 06:36:12;;;;;;;7.65;3.33;;;;;;;8.96;39.46;97240.30;1720155;82;21286;-79
2021/03/24 06:39:06;;;;;;;3.92;2.08;;;;;;;8.96;39.46;97240.30;1738355;82;21136;-81
2021/03/24 06:42:16;;;;;;;3.55;1.70;;;;;;;8.72;36.69;97241.93;1741637;82;21221;-81
2021/03/24 06:45:21;;;;;;;2.90;1.90;;;;;;;8.25;35.79;97252.60;1742446;82;21162;-79
2021/03/24 06:48:41;;;;;;;2.50;1.52;;;;;;;7.50;33.18;97252.77;1736356;82;21568;-81
2021/03/24 06:51:43;;;;;;;4.45;2.00;;;;;;;7.10;32.45;97256.15;1713114;84;21692;-80
2021/03/24 06:54:43;;;;;;;3.47;1.60;;;;;;;6.48;33.67;97253.44;1713130;84;21295;-79
2021/03/24 06:57:46;;;;;;;4.97;1.45;;;;;;;6.19;32.58;97261.76;1732893;83;21179;-82
2021/03/24 07:01:01;;;;;;;3.27;1.92;;;;;;;5.47;31.44;97261.91;1719004;82;21328;-82
2021/03/24 07:03:52;;;;;;;3.25;1.60;;;;;;;5.30;34.13;97264.63;1668140;86;21346;-82
2021/03/24 07:06:59;;;;;;;2.47;1.17;;;;;;;5.65;33.47;97272.27;1884102;75;22197;-80
2021/03/24 07:09:45;;;;;;;2.22;0.98;;;;;;;5.50;32.71;97260.05;1833137;77;21219;-81
2021/03/24 07:35:40;;;;;;;2.55;1.42;;;;;;;4.92;31.33;97289.36;1857466;76;26661;-90
2021/03/24 07:39:00;;;;;;;1.90;1.15;;;;;;;4.54;32.24;97281.80;1819083;78;21123;-85
2021/03/24 07:47:06;;;;;;;2.05;1.25;;;;;;;4.18;32.86;97275.81;1693276;82;21333;-89
2021/03/24 07:50:31;;;;;;;1.75;0.80;;;;;;;4.30;32.70;97286.09;1717001;82;21172;-88
2021/03/24 07:54:23;;;;;;;2.35;1.30;;;;;;;4.59;32.34;97286.34;1667052;85;21208;-86
2021/03/24 07:57:43;;;;;;;1.62;0.90;;;;;;;4.90;32.49;97292.98;1669927;86;21195;-85
2021/03/24 08:16:02;;;;;;;4.22;1.37;;;;;;;5.16;32.71;97294.15;1936646;74;27878;-88
2021/03/24 08:19:45;;;;;;;1.12;0.78;;;;;;;5.15;30.46;97299.86;1771312;76;21234;-85
2021/03/24 08:23:28;;;;;;;3.92;0.90;;;;;;;4.36;29.19;97295.37;1913378;74;26296;-91
2021/03/24 08:26:54;;;;;;;10.60;0.80;;;;;;;4.37;30.39;97287.90;1777458;80;21273;-85
2021/03/24 08:33:18;;;;;;;2.95;1.30;;;;;;;4.19;30.37;97294.46;1764765;80;21278;-89
2021/03/24 08:54:38;;;;;;;2.40;1.10;;;;;;;3.98;31.90;97287.27;1648476;81;21266;-90
2021/03/24 08:58:24;;;;;;;1.90;1.10;;;;;;;4.27;31.98;97284.94;1712231;82;21138;-89
2021/03/24 09:02:50;;;;;;;2.60;0.90;;;;;;;4.47;31.29;97288.28;1725419;83;21219;-90
2021/03/24 09:06:37;;;;;;;3.27;1.35;;;;;;;4.43;30.65;97281.52;1675439;85;21711;-89
2021/03/24 09:10:39;;;;;;;10.05;1.27;;;;;;;4.62;31.63;97284.02;1589443;86;21416;-88
2021/03/24 09:22:14;;;;;;;2.60;1.52;;;;;;;4.40;32.91;97273.88;1632570;87;21179;-89
2021/03/24 09:26:16;;;;;;;2.87;1.30;;;;;;;4.53;32.12;97278.81;1612391;87;21149;-90
2021/03/24 09:52:44;;;;;;;;;;;;;;;;;;;;;
2021/03/24 10:06:49;;;;;;;1.70;0.80;;;;;;;3.87;29.86;97290.88;1684294;80;21192;-89
2021/03/24 10:10:21;;;;;;;1.95;1.00;;;;;;;3.89;30.15;97282.52;1496681;90;21268;-89
2021/03/24 10:14:10;;;;;;;;;;;;;;;;;;;;;
2021/03/24 10:16:53;;;;;;;1.07;0.78;;;;;;;4.16;29.56;97297.25;1451707;94;21298;-88
2021/03/24 15:14:37;;;;;;;4.87;1.20;;;;;;;5.22;26.20;97188.43;1566691;86;21186;31
2021/03/24 15:17:37;;;;;;;4.00;1.45;;;;;;;5.15;26.30;97180.13;1780225;79;24891;-79
2021/03/24 15:20:38;;;;;;;2.20;0.95;;;;;;;5.07;27.22;97187.08;1753207;82;21172;-79
2021/03/24 15:23:35;;;;;;;3.08;1.32;;;;;;;5.07;26.99;97188.39;1753798;81;21164;-76
2021/03/24 15:26:08;;;;;;;;;;;;;;;5.06;27.38;97180.17;1702339;82;21133;-78
2021/03/24 15:28:54;;;;;;;2.55;1.25;;;;;;;5.07;26.86;97177.08;1732578;81;20124;-78
2021/03/24 15:31:48;;;;;;;2.67;1.40;;;;;;;5.06;27.02;97178.03;1724376;83;21137;-79
2021/03/24 15:34:52;;;;;;;3.90;1.60;;;;;;;5.03;27.31;97179.50;1724026;82;21192;-81
2021/03/24 15:37:51;;;;;;;3.65;1.98;;;;;;;4.96;26.71;97179.00;1724143;83;21612;-79
2021/03/24 15:41:08;;;;;;;2.40;1.55;;;;;;;4.88;27.48;97178.59;1723880;83;21159;-81
2021/03/24 15:44:20;;;;;;;2.33;1.20;;;;;;;4.87;26.94;97185.60;1724325;83;21747;-79
2021/03/24 15:47:04;;;;;;;2.60;1.02;;;;;;;4.76;26.62;97188.78;1724208;83;21183;-80
2021/03/24 15:49:43;;;;;;;2.67;1.30;;;;;;;4.66;26.04;97183.69;1724061;83;21164;-78
2021/03/24 15:52:19;;;;;;;4.30;1.50;;;;;;;4.61;26.67;97187.03;1720559;83;21736;-79
2021/03/24 15:55:07;;;;;;;7.75;1.40;;;;;;;4.56;26.49;97180.75;1722823;83;21585;-77
2021/03/24 15:58:27;;;;;;;5.08;1.70;;;;;;;4.54;26.99;97189.13;1724287;83;21163;-78
2021/03/24 16:01:14;;;;;;;5.22;1.25;;;;;;;4.51;27.16;97194.06;1724886;83;21573;-79
2021/03/24 16:04:04;;;;;;;3.62;1.32;;;;;;;4.51;27.59;97202.34;1720807;83;21253;-80
2021/03/24 16:07:04;;;;;;;3.00;1.60;;;;;;;4.48;27.10;97206.44;1723918;83;21144;-79
2021/03/24 16:09:54;;;;;;;3.60;1.50;;;;;;;4.44;27.02;97208.82;1723890;83;21156;-79
2021/03/24 16:13:03;;;;;;;4.78;1.62;;;;;;;4.37;26.65;97214.38;1723639;83;21156;-77
2021/03/24 16:16:13;;;;;;;7.85;1.50;;;;;;;4.34;26.82;97207.18;1724532;82;21660;-78
2021/03/24 16:19:31;;;;;;;1.65;0.75;;;;;;;4.29;27.56;97211.34;1724879;83;21151;-80
2021/03/24 16:22:22;;;;;;;8.83;1.50;;;;;;;4.26;27.47;97209.36;1724923;83;21155;-78
2021/03/24 16:25:01;;;;;;;3.70;1.67;;;;;;;4.16;26.98;97212.45;1724896;83;21620;-78
2021/03/24 16:28:03;;;;;;;5.00;1.90;;;;;;;4.09;27.15;97218.06;1724469;82;21591;-80
2021/03/24 16:30:38;;;;;;;2.33;1.30;;;;;;;4.03;27.37;97225.30;1724389;83;21712;-78
2021/03/24 16:33:46;;;;;;;3.45;1.60;;;;;;;3.96;27.68;97229.59;1724501;83;21148;-78
2021/03/24 16:36:43;;;;;;;7.28;1.65;;;;;;;3.89;27.85;97227.75;1723794;83;21172;-79
2021/03/24 16:39:46;;;;;;;3.47;1.30;;;;;;;3.81;27.87;97231.22;1694296;83;22142;-78
2021/03/24 16:42:30;;;;;;;3.17;1.70;;;;;;;3.76;27.58;97237.97;1724336;83;21144;-80
2021/03/24 16:45:38;;;;;;;4.55;2.27;;;;;;;3.67;28.11;97236.66;1724337;83;21117;-77
2021/03/24 16:48:28;;;;;;;;;;;;;;;3.62;28.37;97241.27;1727051;83;21704;-77
2021/03/24 16:51:47;;;;;;;4.00;1.87;;;;;;;3.53;28.23;97239.12;1724348;83;20247;-78
2021/03/24 16:54:30;;;;;;;4.05;1.77;;;;;;;3.49;28.85;97234.96;1714305;83;21154;-78
2021/03/24 16:57:41;;;;;;;3.30;1.60;;;;;;;3.40;29.06;97233.20;1717218;83;21167;-79
2021/03/24 17:00:40;;;;;;;3.42;1.85;;;;;;;3.33;29.19;97238.33;1724514;83;21574;-79
2021/03/24 17:03:19;;;;;;;6.40;1.95;;;;;;;3.27;29.55;97245.98;1724114;83;21716;-79
2021/03/24 17:06:07;;;;;;;4.37;2.12;;;;;;;3.20;29.75;97249.81;1724303;83;21629;-80
2021/03/24 17:08:55;;;;;;;11.55;2.42;;;;;;;3.15;29.88;97256.16;1718577;83;21763;-79
2021/03/24 17:11:54;;;;;;;6.47;2.75;;;;;;;3.07;29.98;97257.37;1698060;83;21719;-79
2021/03/24 17:15:16;;;;;;;5.50;2.42;;;;;;;3.05;30.15;97268.78;1611176;88;21675;-78
2021/03/24 17:18:17;;;;;;;3.50;1.90;;;;;;;3.05;30.40;97276.59;1779838;79;24868;-79
2021/03/24 17:21:26;;;;;;;6.67;2.95;;;;;;;2.94;30.31;97274.47;1754445;81;21187;-79
2021/03/24 17:24:09;;;;;;;3.98;2.12;;;;;;;2.91;30.65;97275.94;1752201;82;21164;-80
2021/03/24 17:26:38;;;;;;;3.87;2.15;;;;;;;2.85;30.67;97286.18;1752793;82;21669;-78
2021/03/24 17:29:24;;;;;;;5.33;2.00;;;;;;;2.79;30.75;97289.05;1725472;82;21184;-79
2021/03/24 17:31:59;;;;;;;10.58;4.78;;;;;;;2.74;31.06;97293.63;1724021;83;21148;-79
2021/03/24 17:34:42;;;;;;;21.45;6.03;;;;;;;2.68;31.20;97293.45;1723522;83;21144;-80
2021/03/24 17:37:44;;;;;;;18.17;5.85;;;;;;;2.63;31.41;97294.13;1723901;83;21136;-78
2021/03/24 17:40:46;;;;;;;8.58;4.22;;;;;;;2.58;31.66;97301.28;1724013;83;21136;-77
2021/03/24 17:43:53;;;;;;;14.68;5.87;;;;;;;2.53;32.04;97304.09;1708059;83;21144;-80
2021/03/24 17:46:53;;;;;;;18.50;6.15;;;;;;;2.44;32.38;97313.60;1695491;83;21152;-78
2021/03/24 17:49:41;;;;;;;20.02;8.03;;;;;;;2.37;32.87;97308.28;1722596;83;21120;-79
2021/03/24 17:52:29;;;;;;;25.02;9.75;;;;;;;2.31;32.84;97308.95;1721007;83;21397;-78
2021/03/24 17:55:24;;;;;;;21.65;8.90;;;;;;;2.25;33.36;97310.50;1722120;83;21294;-78
2021/03/24 17:58:09;;;;;;;13.93;6.75;;;;;;;2.20;33.55;97322.88;1708203;83;21167;-79
2021/03/24 18:00:53;;;;;;;12.37;5.70;;;;;;;2.16;33.36;97322.16;1722715;83;21612;-78
2021/03/24 18:03:50;;;;;;;19.60;6.90;;;;;;;2.12;33.53;97324.49;1716586;83;21160;-81
2021/03/24 18:06:27;;;;;;;16.37;6.00;;;;;;;2.09;34.23;97327.21;1707693;83;21173;-78
2021/03/24 18:09:08;;;;;;;12.10;4.75;;;;;;;2.07;34.44;97334.26;1717622;83;21221;-78
2021/03/24 18:11:51;;;;;;;11.65;5.83;;;;;;;2.02;34.23;97337.48;1717012;82;21195;-78
2021/03/24 18:14:33;;;;;;;14.80;6.70;;;;;;;2.02;34.54;97340.09;1712518;83;21629;-78
2021/03/24 18:17:12;;;;;;;18.05;8.00;;;;;;;2.01;34.50;97339.70;1720188;83;21147;-79
2021/03/24 18:20:07;;;;;;;17.82;6.97;;;;;;;1.98;34.56;97345.05;1723611;83;21155;-77
2021/03/24 18:22:47;;;;;;;18.82;7.15;;;;;;;1.94;34.69;97349.97;1712126;83;21538;-80
2021/03/24 18:25:31;;;;;;;18.37;7.20;;;;;;;1.93;34.96;97349.14;1701184;83;21192;-75
2021/03/24 18:28:23;;;;;;;26.70;7.50;;;;;;;1.90;35.19;97349.72;1716986;83;21189;-80
2021/03/24 18:31:06;;;;;;;17.32;7.05;;;;;;;1.84;35.51;97349.05;1720530;83;21712;-79
2021/03/24 18:33:41;;;;;;;33.38;10.80;;;;;;;1.83;35.60;97353.84;1723120;83;21151;-77
2021/03/24 18:36:23;;;;;;;16.95;7.22;;;;;;;1.79;35.92;97353.61;1721257;83;21250;-77
2021/03/24 18:38:56;;;;;;;12.78;6.78;;;;;;;1.72;35.88;97361.23;1720865;83;21165;-77
2021/03/24 18:41:29;;;;;;;22.75;8.25;;;;;;;1.66;36.56;97364.09;1720954;83;21138;-75
2021/03/24 18:44:07;;;;;;;20.85;8.65;;;;;;;1.60;36.89;97367.77;1708490;83;21191;-76
2021/03/24 18:46:40;;;;;;;19.27;7.28;;;;;;;1.55;37.56;97367.95;1674780;84;21203;-76
2021/03/24 18:49:11;;;;;;;17.82;7.55;;;;;;;1.52;38.13;97367.23;1699963;83;21191;-79
2021/03/24 18:51:44;;;;;;;21.62;7.80;;;;;;;1.47;38.54;97369.19;1722979;83;21147;-76
2021/03/24 18:54:35;;;;;;;31.50;9.58;;;;;;;1.44;38.66;97371.89;1689516;84;21169;-78
2021/03/24 18:57:20;;;;;;;19.85;9.70;;;;;;;1.38;40.16;97375.14;1711058;82;21217;-78
2021/03/24 18:59:48;;;;;;;19.10;7.70;;;;;;;1.30;39.61;97375.86;1706848;83;21189;-76
2021/03/24 19:02:29;;;;;;;15.18;6.37;;;;;;;1.24;39.97;97380.00;1718431;83;21452;-77
2021/03/24 19:04:58;;;;;;;15.53;6.30;;;;;;;1.17;39.83;97380.67;1705840;83;21579;-78
2021/03/24 19:07:39;;;;;;;21.87;6.62;;;;;;;1.11;40.02;97395.20;1718657;83;21151;-76
2021/03/24 19:10:15;;;;;;;16.17;5.97;;;;;;;1.07;40.14;97393.61;1696780;83;21389;-79
2021/03/24 19:12:49;;;;;;;;;;;;;;;1.02;40.40;97395.54;1699384;83;21602;-78
2021/03/24 19:15:44;;;;;;;12.58;6.10;;;;;;;0.98;41.28;97405.20;1690073;84;20169;-79
2021/03/24 19:18:34;;;;;;;13.20;5.83;;;;;;;0.95;40.44;97407.89;1706292;83;21168;-77
2021/03/24 19:21:19;;;;;;;11.20;5.75;;;;;;;0.95;40.32;97401.87;1717262;83;21154;-78
2021/03/24 19:24:26;;;;;;;16.25;5.85;;;;;;;0.93;40.81;97401.47;1709821;84;21473;-77
2021/03/24 19:27:18;;;;;;;;;;;;;;;0.90;40.13;97398.98;1717480;83;21219;-79
2021/03/24 19:30:08;;;;;;;17.82;5.80;;;;;;;0.87;42.17;97399.54;1714800;84;20192;-80
2021/03/24 19:32:40;;;;;;;19.02;7.35;;;;;;;0.82;40.96;97406.20;1708861;83;21172;-78
2021/03/24 19:35:30;;;;;;;15.98;7.03;;;;;;;0.78;40.85;97415.02;1723663;83;21341;-80
2021/03/24 19:38:31;;;;;;;11.95;5.47;;;;;;;0.75;41.23;97419.00;1720915;83;21224;-79
2021/03/24 19:41:20;;;;;;;13.37;5.80;;;;;;;0.66;41.58;97416.73;1616417;88;21236;-77
2021/03/24 19:43:56;;;;;;;10.43;4.90;;;;;;;0.58;41.29;97421.75;1599215;90;21262;-81
2021/03/24 19:46:35;;;;;;;12.30;5.35;;;;;;;0.48;40.87;97429.88;1601581;89;21619;-78
2021/03/24 19:49:16;;;;;;;13.38;5.65;;;;;;;0.42;42.07;97430.94;1601404;89;21307;-77
2021/03/24 19:51:48;;;;;;;14.78;6.33;;;;;;;0.39;42.33;97437.08;1600888;89;21691;-79
2021/03/24 19:54:18;;;;;;;17.32;6.25;;;;;;;0.39;42.51;97433.19;1601345;89;21437;-79
2021/03/24 19:57:16;;;;;;;13.27;5.53;;;;;;;0.37;42.41;97441.93;1598950;90;21209;-77
2021/03/24 19:59:58;;;;;;;18.17;6.90;;;;;;;0.37;42.82;97437.58;1600495;89;21280;-79